Time;durP1;ratioP1;P1;durP2;ratioP2;P2;SDS_P1;SDS_P2;PMS_P1;PMS_P2;Temp;Humidity;BMP_temperature;BMP_pressure;BME280_temperature;BME280_humidity;BME280_pressure;Samples;Min_cycle;Max_cycle;Signal;HPM_P1;HPM_P2
2022/01/07 00:01:04;;;;;;;12.70;5.13;;;;;;;;;;6221606;23;20020;-90
2022/01/07 00:03:30;;;;;;;8.15;4.82;;;;;;;;;;6196352;23;20020;-89
2022/01/07 00:05:56;;;;;;;7.38;4.78;;;;;;;;;;6221133;23;20327;-90
2022/01/07 00:08:22;;;;;;;11.77;4.60;;;;;;;;;;6196041;23;20345;-90
2022/01/07 00:10:48;;;;;;;13.00;4.60;;;;;;;;;;6196626;23;20035;-91
2022/01/07 00:13:14;;;;;;;11.05;4.25;;;;;;;;;;6195824;23;20020;-91
2022/01/07 00:15:41;;;;;;;8.27;4.10;;;;;;;;;;6196852;23;20374;-92
2022/01/07 00:18:07;;;;;;;15.55;4.68;;;;;;;;;;6221307;23;20012;-91
2022/01/07 00:20:33;;;;;;;9.73;5.13;;;;;;;;;;6197020;23;20020;-90
2022/01/07 00:22:59;;;;;;;13.20;5.20;;;;;;;;;;6196423;23;20019;-91
2022/01/07 00:25:25;;;;;;;12.23;5.00;;;;;;;;;;6221704;23;20040;-92
2022/01/07 00:27:52;;;;;;;12.35;5.18;;;;;;;;;;6196590;23;20020;-91
2022/01/07 00:30:19;;;;;;;11.05;6.05;;;;;;;;;;6196487;23;20023;-91
2022/01/07 00:32:45;;;;;;;5.95;3.60;;;;;;;;;;6196037;23;20019;-92
2022/01/07 00:35:12;;;;;;;15.02;4.95;;;;;;;;;;6196444;23;20020;-92
2022/01/07 00:37:38;;;;;;;21.40;5.10;;;;;;;;;;6196544;23;20051;-92
2022/01/07 00:40:12;;;;;;;13.15;5.53;;;;;;;;;;6196172;23;20020;-90
2022/01/07 00:42:38;;;;;;;;;;;3.70;99.90;;;;;;6196571;23;20012;-90
2022/01/07 00:45:04;;;;;;;8.18;4.60;;;;;;;;;;6196901;23;19915;-91
2022/01/07 00:47:30;;;;;;;6.97;4.25;;;;;;;;;;6197499;23;20046;-90
2022/01/07 00:49:58;;;;;;;8.20;5.53;;;;;;;;;;6196392;23;20016;-91
2022/01/07 00:52:25;;;;;;;8.25;5.13;;;;;;;;;;6221093;23;20008;-91
2022/01/07 00:54:51;;;;;;;9.32;4.80;;;;;;;;;;6196748;23;20058;-91
2022/01/07 00:57:17;;;;;;;11.13;5.35;;;;;;;;;;6220832;23;20066;-91
2022/01/07 00:59:46;;;;;;;6.38;4.82;;;;;;;;;;6198079;23;20073;-91
2022/01/07 01:02:12;;;;;;;15.52;5.90;;;;;;;;;;6221845;23;20066;-91
2022/01/07 01:04:38;;;;;;;13.50;5.13;;;;;;;;;;6197066;23;20016;-91
2022/01/07 01:07:05;;;;;;;10.80;5.25;;;;;;;;;;6195970;23;20017;-91
2022/01/07 01:09:31;;;;;;;12.70;5.50;;;;;;;;;;6196346;23;20043;-92
2022/01/07 01:11:57;;;;;;;8.30;4.63;;;;;;;;;;6196151;23;20407;-91
2022/01/07 01:14:24;;;;;;;16.95;7.03;;;;;;;;;;6195636;23;20027;-91
2022/01/07 01:16:53;;;;;;;11.18;5.13;;;;;;;;;;6248112;23;20012;-91
2022/01/07 01:19:19;;;;;;;13.27;5.68;;;;;;;;;;6196869;23;20098;-91
2022/01/07 01:21:45;;;;;;;10.63;5.28;;;;;;;;;;6196131;23;20016;-91
2022/01/07 01:24:11;;;;;;;13.00;5.55;;;;;;;;;;6196068;23;20016;-92
2022/01/07 01:26:37;;;;;;;12.27;5.60;;;;;;;;;;6196076;23;20047;-91
2022/01/07 01:29:03;;;;;;;10.05;4.93;;;;;;;;;;6195864;23;20019;-91
2022/01/07 01:31:30;;;;;;;13.60;6.90;;;;;;;;;;6196236;23;20022;-91
2022/01/07 01:33:57;;;;;;;13.05;4.82;;;;;;;;;;6195678;23;20043;-91
2022/01/07 01:36:23;;;;;;;7.75;5.50;;;;;;;;;;6195479;23;20103;-91
2022/01/07 01:38:49;;;;;;;10.52;5.93;;;;;;;;;;6196018;23;20016;-92
2022/01/07 01:41:15;;;;;;;12.77;5.68;;;;;;;;;;6195776;23;20016;-91
2022/01/07 01:43:41;;;;;;;8.68;5.18;;;;;;;;;;6221187;23;20028;-91
2022/01/07 01:46:07;;;;;;;14.15;6.22;;;;;;;;;;6196222;23;20016;-91
2022/01/07 01:48:34;;;;;;;13.68;7.63;;;;;;;;;;6195749;23;20016;-91
2022/01/07 01:51:00;;;;;;;10.52;6.10;;;;;;;;;;6195901;23;20016;-92
2022/01/07 01:53:27;;;;;;;9.32;6.03;;;;;;;;;;6195404;23;20389;-91
2022/01/07 01:55:54;;;;;;;7.82;5.35;;;;;;;;;;6196107;23;20095;-92
2022/01/07 01:58:20;;;;;;;8.90;4.68;;;;;;;;;;6195977;23;20016;-91
2022/01/07 02:00:46;;;;;;;9.43;5.68;;;;;;;;;;6197106;23;20066;-92
2022/01/07 02:03:12;;;;;;;17.52;6.78;;;;;;;;;;6198651;23;20027;-91
2022/01/07 02:05:38;;;;;;;10.50;6.55;;;;;;;;;;6222052;23;20020;-91
2022/01/07 02:08:04;;;;;;;11.10;6.22;;;;;;;;;;6196910;23;20048;-92
2022/01/07 02:10:30;;;;;;;9.80;6.07;;;;;;;;;;6197466;23;20350;-92
2022/01/07 02:12:56;;;;;;;13.30;6.97;;;;;;;;;;6196490;23;20012;-93
2022/01/07 02:15:23;;;;;;;14.45;7.13;;;;;;;;;;6196356;23;20074;-92
2022/01/07 02:17:50;;;;;;;15.63;7.20;;;;;;;;;;6196759;23;20018;-92
2022/01/07 02:20:18;;;;;;;10.02;6.95;;;;;;;;;;6196324;23;20094;-92
2022/01/07 02:22:44;;;;;;;9.88;5.78;;;;;;;;;;6196077;23;20017;-92
2022/01/07 02:25:10;;;;;;;11.25;7.22;;;;;;;;;;6195929;23;20350;-92
2022/01/07 02:27:37;;;;;;;12.45;8.00;;;;;;;;;;6197167;23;20017;-92
2022/01/07 02:30:04;;;;;;;11.18;6.32;;;;;;;;;;6196618;23;20095;-93
2022/01/07 02:32:30;;;;;;;13.52;7.25;;;;;;;;;;6195558;23;20012;-92
2022/01/07 02:34:57;;;;;;;9.90;8.07;;;;;;;;;;6195578;23;20027;-92
2022/01/07 02:37:23;;;;;;;14.48;7.00;;;;;;;;;;6195282;23;20024;-91
2022/01/07 02:39:49;;;;;;;7.90;5.53;;;;;;;;;;6195759;23;20029;-92
2022/01/07 02:42:15;;;;;;;9.57;6.32;;;;;;;;;;6196022;23;20012;-92
2022/01/07 02:44:42;;;;;;;12.52;7.03;;;;;;;;;;6196723;23;20020;-93
2022/01/07 02:47:08;;;;;;;18.20;7.80;;;;;;;;;;6195855;23;20452;-93
2022/01/07 02:49:34;;;;;;;10.23;6.93;;;;;;;;;;6195162;23;20017;-93
2022/01/07 02:52:00;;;;;;;10.48;7.20;;;;;;;;;;6198863;23;20016;-92
2022/01/07 02:54:26;;;;;;;10.82;7.20;;;;;;;;;;6197675;23;20027;-93
2022/01/07 02:56:52;;;;;;;17.95;7.60;;;;;;;;;;6198127;23;20109;-94
2022/01/07 02:59:18;;;;;;;11.40;7.25;;;;;;;;;;6197905;23;20483;-93
2022/01/07 03:01:44;;;;;;;9.70;6.93;;;;;;;;;;6198122;23;20019;-93
2022/01/07 03:04:10;;;;;;;10.52;5.88;;;;;;;;;;6199777;23;20062;-93
2022/01/07 03:06:37;;;;;;;12.38;7.30;;;;;;;;;;6198125;23;20062;-93
2022/01/07 03:09:04;;;;;;;20.10;8.15;;;;;;;;;;6198153;23;20020;-93
2022/01/07 03:11:30;;;;;;;7.55;6.53;;;;;;;;;;6198197;23;20013;-93
2022/01/07 03:13:56;;;;;;;10.93;7.25;;;;;;;;;;6197582;23;20078;-92
2022/01/07 03:16:22;;;;;;;10.13;7.53;;;;;;;;;;6197534;23;20047;-93
2022/01/07 03:18:48;;;;;;;7.10;6.22;;;;;;;;;;6198210;23;20016;-93
2022/01/07 03:21:15;;;;;;;14.68;8.20;;;;;;;;;;6199211;23;20326;-92
2022/01/07 03:23:41;;;;;;;11.88;7.95;;;;;;;;;;6197962;23;20019;-93
2022/01/07 03:26:10;;;;;;;12.18;6.65;;;;;;;;;;6197924;23;20016;-92
2022/01/07 03:28:38;;;;;;;14.20;7.85;;;;;;;;;;6198571;23;20012;-92
2022/01/07 03:31:05;;;;;;;11.57;8.23;;;;;;;;;;6198235;23;20073;-92
2022/01/07 03:33:31;;;;;;;14.93;7.72;;;;;;;;;;6198038;23;20020;-92
2022/01/07 03:35:57;;;;;;;17.00;8.45;;;;;;;;;;6197618;23;20065;-92
2022/01/07 03:38:23;;;;;;;12.00;9.15;;;;;;;;;;6197608;23;20012;-92
2022/01/07 03:40:49;;;;;;;9.73;7.03;;;;;;;;;;6197915;23;20020;-92
2022/01/07 03:43:16;;;;;;;12.95;7.60;;;;;;;;;;6197059;23;20072;-92
2022/01/07 03:45:42;;;;;;;11.00;7.55;;;;;;;;;;6197408;23;20043;-92
2022/01/07 03:48:09;;;;;;;12.43;7.88;;;;;;;;;;6196869;23;20051;-91
2022/01/07 03:50:35;;;;;;;12.40;8.18;;;;;;;;;;6196616;23;20024;-92
2022/01/07 03:53:01;;;;;;;13.88;9.18;;;;;;;;;;6197154;23;20019;-93
2022/01/07 03:55:28;;;;;;;14.05;8.63;;;;;;;;;;6196477;23;20023;-93
2022/01/07 03:57:55;;;;;;;13.57;7.07;;;;;;;;;;6197467;23;20051;-92
2022/01/07 04:00:25;;;;;;;8.25;6.50;;;;;;;;;;6197014;23;20091;-92
2022/01/07 04:02:52;;;;;;;9.75;7.30;;;;;;;;;;6196930;23;20020;-92
2022/01/07 04:05:21;;;;;;;13.52;8.75;;;;;;;;;;6197257;23;20024;-92
2022/01/07 04:07:47;;;;;;;11.27;7.00;;;;;;;;;;6196829;23;20016;-93
2022/01/07 04:10:13;;;;;;;13.93;7.82;;;;;;;;;;6196512;23;20016;-92
2022/01/07 04:12:39;;;;;;;12.60;7.85;;;;;;;;;;6196528;23;20012;-92
2022/01/07 04:15:09;;;;;;;8.73;6.78;;;;;;;;;;6196922;23;20043;-92
2022/01/07 04:17:39;;;;;;;10.68;7.65;;;;;;;;;;6196571;23;20071;-92
2022/01/07 04:20:06;;;;;;;10.50;7.13;;;;;;;;;;6196455;23;20059;-93
2022/01/07 04:22:33;;;;;;;7.28;6.15;;;;;;;;;;6222112;23;20353;-92
2022/01/07 04:24:59;;;;;;;12.02;7.75;;;;;;;;;;6196871;23;20020;-93
2022/01/07 04:27:25;;;;;;;9.30;6.70;;;;;;;;;;6197229;23;20023;-92
2022/01/07 04:29:52;;;;;;;14.50;8.18;;;;;;;;;;6197109;23;20465;-92
2022/01/07 04:32:18;;;;;;;10.48;7.45;;;;;;;;;;6196833;23;20461;-91
2022/01/07 04:42:30;;;;;;;9.68;8.48;;;;;;;;;;6212708;23;20055;-92
2022/01/07 04:44:56;;;;;;;11.00;7.13;;;;;;;;;;6196705;23;20020;-91
2022/01/07 04:47:22;;;;;;;11.93;8.23;;;;;;;;;;6196917;23;20020;-92
2022/01/07 04:58:50;;;;;;;13.00;8.20;;;;;;;;;;6201900;22;20103;-91
2022/01/07 05:04:53;;;;;;;15.88;9.13;;;;;;;;;;6258782;23;20326;-91
2022/01/07 05:07:19;;;;;;;11.35;7.70;;;;;;;;;;6196679;23;20015;-91
2022/01/07 05:09:45;;;;;;;24.95;9.50;;;;;;;;;;6196129;23;20012;-90
2022/01/07 05:12:11;;;;;;;15.18;8.30;;;;;;;;;;6196461;23;20150;-91
2022/01/07 05:14:37;;;;;;;12.70;8.77;;;;;;;;;;6195973;23;20016;-91
2022/01/07 05:17:03;;;;;;;13.00;8.15;;;;;;;;;;6199006;23;20044;-90
2022/01/07 05:19:29;;;;;;;12.10;8.63;;;;;;;;;;6197376;23;20074;-92
2022/01/07 05:22:31;;;;;;;11.05;6.78;;;3.40;99.90;;;;;;6198963;23;20016;-96
2022/01/07 05:24:57;;;;;;;15.23;8.48;;;;;;;;;;6206380;22;20020;-91
2022/01/07 05:27:23;;;;;;;12.32;7.63;;;;;;;;;;6166803;23;20013;-91
2022/01/07 05:29:49;;;;;;;14.60;7.53;;;;;;;;;;6166565;23;20021;-91
2022/01/07 05:32:15;;;;;;;13.02;9.23;;;;;;;;;;6165859;23;20350;-90
2022/01/07 05:34:41;;;;;;;8.55;6.63;;;;;;;;;;6166195;23;20028;-90
2022/01/07 05:37:10;;;;;;;12.07;8.15;;;;;;;;;;6168102;23;20071;-91
2022/01/07 05:39:36;;;;;;;15.82;7.95;;;;;;;;;;6166591;23;20025;-91
2022/01/07 05:42:02;;;;;;;11.93;8.57;;;;;;;;;;6166933;23;20012;-91
2022/01/07 05:44:28;;;;;;;13.38;8.63;;;;;;;;;;6165931;23;20099;-90
2022/01/07 05:46:55;;;;;;;17.17;7.72;;;;;;;;;;6166051;23;20013;-90
2022/01/07 05:49:21;;;;;;;11.43;7.70;;;;;;;;;;6166204;23;20028;-91
2022/01/07 05:51:47;;;;;;;12.00;8.02;;;;;;;;;;6165922;23;20013;-91
2022/01/07 05:54:13;;;;;;;12.88;7.65;;;;;;;;;;6165683;23;20013;-91
2022/01/07 05:56:39;;;;;;;15.35;8.65;;;;;;;;;;6165988;23;20025;-91
2022/01/07 05:59:05;;;;;;;10.65;7.82;;;;;;;;;;6166340;23;20012;-91
2022/01/07 06:01:32;;;;;;;15.85;8.75;;;;;;;;;;6166258;23;20028;-91
2022/01/07 06:03:58;;;;;;;13.88;9.40;;;;;;;;;;6166322;23;20525;-91
2022/01/07 06:06:24;;;;;;;15.77;8.98;;;;;;;;;;6166422;23;20021;-91
2022/01/07 06:08:50;;;;;;;10.55;6.95;;;;;;;;;;6165709;23;20013;-90
2022/01/07 06:11:17;;;;;;;11.35;8.13;;;;;;;;;;6165979;23;20020;-91
2022/01/07 06:13:43;;;;;;;14.88;8.43;;;;;;;;;;6166418;23;20017;-91
2022/01/07 06:16:09;;;;;;;15.02;7.85;;;;;;;;;;6164951;23;20485;-91
2022/01/07 06:18:39;;;;;;;17.48;9.85;;;;;;;;;;6165756;23;20009;-91
2022/01/07 06:21:06;;;;;;;11.20;6.85;;;;;;;;;;6167367;23;20378;-91
2022/01/07 06:23:32;;;;;;;12.70;7.47;;;;;;;;;;6167235;23;20020;-91
2022/01/07 06:25:58;;;;;;;11.75;8.82;;;;;;;;;;6166683;23;20043;-91
2022/01/07 06:28:25;;;;;;;9.85;7.78;;;;;;;;;;6168696;23;20469;-91
2022/01/07 06:30:52;;;;;;;10.25;5.57;;;;;;;;;;6167022;23;20095;-91
2022/01/07 06:33:18;;;;;;;12.52;7.72;;;;;;;;;;6168922;23;20039;-91
2022/01/07 06:35:44;;;;;;;17.75;8.57;;;;;;;;;;6168513;23;20020;-91
2022/01/07 06:38:10;;;;;;;11.10;8.10;;;;;;;;;;6167837;23;20023;-91
2022/01/07 06:40:36;;;;;;;15.10;8.35;;;;;;;;;;6167787;23;20017;-91
2022/01/07 06:43:02;;;;;;;14.50;7.97;;;;;;;;;;6167725;23;20053;-90
2022/01/07 06:45:28;;;;;;;6.82;5.68;;;;;;;;;;6168768;23;20024;-91
2022/01/07 06:47:55;;;;;;;8.95;7.07;;;;;;;;;;6170887;23;20020;-91
2022/01/07 06:50:21;;;;;;;13.32;9.15;;;;;;;;;;6194334;23;20013;-92
2022/01/07 06:52:47;;;;;;;13.43;7.22;;;;;;;;;;6167715;23;20020;-91
2022/01/07 06:55:13;;;;;;;13.00;6.60;;;;;;;;;;6167704;23;20016;-91
2022/01/07 06:57:39;;;;;;;8.43;5.80;;;;;;;;;;6167960;23;20454;-91
2022/01/07 07:00:05;;;;;;;21.08;8.48;;;;;;;;;;6168014;23;20527;-91
2022/01/07 07:02:31;;;;;;;13.13;9.23;;;;;;;;;;6167068;23;20016;-90
2022/01/07 07:04:57;;;;;;;11.25;8.32;;;;;;;;;;6167795;23;20062;-91
2022/01/07 07:07:23;;;;;;;15.18;9.20;;;;;;;;;;6167168;23;20020;-90
2022/01/07 07:09:49;;;;;;;14.07;8.80;;;;;;;;;;6167625;23;20020;-91
2022/01/07 07:12:16;;;;;;;14.23;8.88;;;;;;;;;;6167659;23;20338;-90
2022/01/07 07:14:42;;;;;;;17.23;10.68;;;;;;;;;;6167478;23;20027;-90
2022/01/07 07:17:08;;;;;;;12.82;8.98;;;;;;;;;;6168065;23;20024;-90
2022/01/07 07:19:34;;;;;;;13.15;8.93;;;;;;;;;;6167780;23;20017;-90
2022/01/07 07:22:00;;;;;;;13.48;9.60;;;;;;;;;;6166939;23;20013;-89
2022/01/07 07:24:26;;;;;;;12.77;8.80;;;;;;;;;;6167030;23;20021;-91
2022/01/07 07:26:52;;;;;;;12.45;9.93;;;;;;;;;;6186277;23;20012;-90
2022/01/07 07:29:18;;;;;;;17.08;10.63;;;;;;;;;;6193786;23;20020;-90
2022/01/07 07:31:49;;;;;;;12.90;9.90;;;;;;;;;;6222205;23;20138;-91
2022/01/07 07:34:31;;;;;;;18.85;10.50;;;;;;;;;;6222101;23;20023;-91
2022/01/07 07:36:57;;;;;;;14.27;9.70;;;;;;;;;;6221799;23;20020;-91
2022/01/07 07:39:23;;;;;;;16.25;10.85;;;;;;;;;;6222071;23;20047;-91
2022/01/07 07:41:49;;;;;;;18.42;11.23;;;;;;;;;;6221865;23;20020;-90
2022/01/07 07:44:15;;;;;;;17.63;11.75;;;;;;;;;;6221638;23;20432;-91
2022/01/07 07:46:42;;;;;;;13.13;10.35;;;;;;;;;;6221203;23;20051;-91
2022/01/07 07:49:08;;;;;;;13.90;8.98;;;;;;;;;;6221240;23;20552;-90
2022/01/07 07:51:36;;;;;;;18.52;10.68;;;;;;;;;;6247518;23;20016;-90
2022/01/07 07:54:02;;;;;;;14.25;10.82;;;;;;;;;;6221661;23;20099;-90
2022/01/07 07:56:28;;;;;;;23.27;13.27;;;;;;;;;;6221692;23;20020;-91
2022/01/07 07:58:57;;;;;;;20.33;11.35;;;;;;;;;;6222505;23;20066;-91
2022/01/07 08:01:25;;;;;;;17.42;10.93;;;;;;;;;;6222166;23;20050;-92
2022/01/07 08:03:54;;;;;;;16.50;9.40;;;;;;;;;;6222233;23;20027;-90
2022/01/07 08:06:23;;;;;;;19.00;11.32;;;;;;;;;;6249478;22;20019;-90
2022/01/07 08:08:50;;;;;;;21.92;12.30;;;;;;;;;;6246650;23;20023;-90
2022/01/07 08:11:16;;;;;;;21.70;11.88;;;;;;;;;;6245786;23;20378;-91
2022/01/07 08:16:27;;;;;;;14.32;10.40;;;;;;;;;;6250304;23;20111;-93
2022/01/07 08:18:54;;;;;;;18.25;11.73;;;;;;;;;;6227009;23;20020;-89
2022/01/07 08:21:26;;;;;;;21.30;10.95;;;;;;;;;;6228357;23;20016;-90
2022/01/07 08:23:56;;;;;;;16.23;10.63;;;;;;;;;;6252967;22;20016;-92
2022/01/07 08:26:24;;;;;;;19.77;12.07;;;;;;;;;;6229128;23;20020;-95
2022/01/07 08:28:59;;;;;;;18.95;10.77;;;;;;;;;;6250761;23;20020;-90
2022/01/07 08:37:02;;;;;;;14.43;10.43;;;;;;;;;;6163863;23;20021;-90
2022/01/07 08:39:28;;;;;;;17.77;12.38;;;;;;;;;;6136785;23;20013;-90
2022/01/07 08:42:03;;;;;;;22.40;11.85;;;;;;;;;;6141651;23;20017;-91
2022/01/07 08:44:44;;;;;;;18.48;11.07;;;;;;;;;;6138754;23;20056;-91
2022/01/07 08:47:35;;;;;;;21.55;12.23;;;;;;;;;;6164702;23;20104;-91
2022/01/07 09:06:59;;;;;;;17.85;12.68;;;;;;;;;;5826640;24;20021;-93
2022/01/07 09:18:51;;;;;;;21.58;12.57;;;;;;;;;;5743047;24;20020;-93
2022/01/07 09:21:51;;;;;;;18.30;11.32;;;;;;;;;;5746142;24;20095;-96
2022/01/07 09:25:06;;;;;;;22.15;14.32;;;;;;;;;;5745721;24;20011;-94
2022/01/07 09:27:54;;;;;;;21.77;13.55;;;;;;;;;;5779835;24;20134;-94
2022/01/07 09:30:23;;;;;;;24.95;13.25;;;;;;;;;;5854418;24;20014;-93
2022/01/07 09:32:52;;;;;;;27.88;13.27;;;;;;;;;;5854160;24;20049;-94
2022/01/07 09:35:26;;;;;;;33.97;13.77;;;;;;;;;;5856295;24;20022;-93
2022/01/07 09:37:55;;;;;;;30.88;14.00;;;;;;;;;;5964448;23;20022;-93
2022/01/07 09:40:24;;;;;;;22.35;14.43;;;;;;;;;;6046122;23;20026;-92
2022/01/07 09:43:19;;;;;;;27.33;15.60;;;;;;;;;;6048731;23;20018;-94
2022/01/07 09:45:51;;;;;;;20.88;13.15;;;;;;;;;;6018995;23;20057;-91
2022/01/07 09:48:20;;;;;;;23.50;13.00;;;;;;;;;;6019514;23;20485;-92
2022/01/07 09:51:01;;;;;;;22.08;13.25;;;;;;;;;;6019590;23;20106;-91
2022/01/07 09:53:49;;;;;;;22.50;10.90;;;;;;;;;;6020833;23;20446;-93
2022/01/07 10:02:29;;;;;;;31.30;10.20;;;;;;;;;;6221610;23;20036;-90
2022/01/07 10:05:16;;;;;;;19.30;10.05;;;;;;;;;;6171119;23;20012;-90
2022/01/07 10:10:41;;;;;;;11.52;8.23;;;;;;;;;;6131230;23;20022;-92
2022/01/07 10:13:25;;;;;;;13.23;7.88;;;;;;;;;;6106732;23;20028;-93
2022/01/07 10:16:12;;;;;;;10.35;6.20;;;;;;;;;;6087693;23;20166;-92
2022/01/07 10:18:46;;;;;;;7.70;5.43;;;;;;;;;;6053993;23;20015;-95
2022/01/07 10:21:24;;;;;;;13.48;7.28;;;;;;;;;;6053816;23;20029;-92
2022/01/07 10:24:12;;;;;;;9.70;6.00;;;;;;;;;;6053649;23;20018;-92
2022/01/07 10:26:55;;;;;;;8.48;4.88;;;;;;;;;;6052916;23;20047;-91
2022/01/07 10:29:37;;;;;;;7.85;4.65;;;;;;;;;;5941769;23;20086;-92
2022/01/07 10:32:46;;;;;;;5.75;4.15;;;4.80;99.90;;;;;;5939699;24;20099;-91
2022/01/07 10:35:40;;;;;;;5.60;3.80;;;;;;;;;;5985692;23;20051;-92
2022/01/07 10:38:19;;;;;;;9.00;3.70;;;;;;;;;;5908648;24;20045;-91
2022/01/07 10:40:48;;;;;;;4.80;3.70;;;;;;;;;;5894978;24;20077;-92
2022/01/07 10:43:22;;;;;;;4.57;2.72;;;;;;;;;;5941224;24;20091;-92
2022/01/07 10:45:53;;;;;;;6.30;3.20;;;;;;;;;;5941857;24;20016;-92
2022/01/07 10:48:42;;;;;;;4.82;3.08;;;;;;;;;;5941619;24;20444;-91
2022/01/07 10:51:19;;;;;;;5.80;2.55;;;;;;;;;;5940348;24;20027;-91
2022/01/07 10:53:58;;;;;;;4.32;2.63;;;;;;;;;;5941014;24;20107;-93
2022/01/07 10:56:59;;;;;;;4.68;2.00;;;;;;;;;;5940561;23;20111;-91
2022/01/07 10:59:32;;;;;;;5.20;2.40;;;;;;;;;;5945400;23;20035;-92
2022/01/07 11:02:00;;;;;;;6.15;2.50;;;;;;;;;;6016450;23;20093;-92
2022/01/07 11:04:38;;;;;;;6.30;2.55;;;;;;;;;;6016223;23;20038;-95
2022/01/07 11:07:12;;;;;;;7.32;2.60;;;;;;;;;;6016891;23;20075;-93
2022/01/07 11:09:41;;;;;;;7.50;2.72;;;;;;;;;;6016476;23;20035;-93
2022/01/07 11:12:14;;;;;;;10.10;3.63;;;;;;;;;;6017021;23;20103;-92
2022/01/07 11:14:41;;;;;;;8.98;3.17;;;;;;;;;;6089625;23;20024;-91
2022/01/07 11:17:20;;;;;;;4.85;2.47;;;;;;;;;;6139762;23;20052;-92
2022/01/07 11:19:49;;;;;;;4.72;2.83;;;;;;;;;;6140442;23;20053;-92
2022/01/07 11:22:16;;;;;;;8.00;3.13;;;;;;;;;;6138517;23;20017;-91
2022/01/07 11:24:42;;;;;;;8.23;4.00;;;;;;;;;;6138251;23;20027;-91
2022/01/07 11:27:08;;;;;;;12.30;4.65;;;;;;;;;;6140377;23;20017;-92
2022/01/07 11:29:38;;;;;;;6.13;3.65;;;;;;;;;;6141191;23;20429;-93
2022/01/07 11:32:26;;;;;;;15.05;5.25;;;;;;;;;;6139726;23;20024;-92
2022/01/07 11:35:15;;;;;;;11.77;5.28;;;;;;;;;;6139420;23;20024;-92
2022/01/07 11:37:42;;;;;;;12.02;5.22;;;;;;;;;;6162579;23;20017;-91
2022/01/07 11:40:08;;;;;;;9.35;5.25;;;;;;;;;;6139138;23;20096;-91
2022/01/07 11:42:41;;;;;;;12.52;7.03;;;;;;;;;;6142218;23;20435;-91
2022/01/07 11:45:30;;;;;;;9.05;5.25;;;;;;;;;;6145615;23;20020;-91
2022/01/07 11:53:46;;;;;;;11.05;6.05;;;;;;;;;;6284260;22;20019;-93
2022/01/07 11:56:33;;;;;;;13.73;6.72;;;;;;;;;;6225846;22;20128;-91
2022/01/07 11:59:10;;;;;;;13.68;5.70;;;;;;;;;;6227804;23;20089;-91
2022/01/07 12:01:39;;;;;;;17.20;7.00;;;;;;;;;;6228054;23;20162;-91
2022/01/07 12:04:19;;;;;;;15.38;5.75;;;;;;;;;;6227901;23;20023;-91
2022/01/07 12:06:51;;;;;;;13.70;7.00;;;;;;;;;;6229461;23;20023;-92
2022/01/07 12:09:28;;;;;;;17.30;6.40;;;;;;;;;;6228560;23;20095;-93
2022/01/07 12:12:08;;;;;;;10.98;6.90;;;;;;;;;;6229619;23;20020;-92
2022/01/07 12:14:52;;;;;;;;;;;;;;;;;;;;;
2022/01/07 12:17:25;;;;;;;17.35;8.48;;;;;;;;;;6250907;23;20017;-93
2022/01/07 12:20:01;;;;;;;14.73;7.28;;;;;;;;;;6225436;23;20018;-94
2022/01/07 12:22:33;;;;;;;13.32;7.95;;;;;;;;;;6226439;23;20311;-93
2022/01/07 12:25:04;;;;;;;10.77;7.15;;;;;;;;;;6223484;23;20470;-92
2022/01/07 12:27:30;;;;;;;15.85;6.65;;;;;;;;;;6227602;23;20020;-92
2022/01/07 12:30:02;;;;;;;12.20;6.10;;;;;;;;;;6226091;23;20095;-94
2022/01/07 12:32:36;;;;;;;11.38;5.93;;;;;;;;;;6224863;23;20020;-92
2022/01/07 12:35:10;;;;;;;13.45;7.10;;;;;;;;;;6249247;23;20103;-92
2022/01/07 12:37:39;;;;;;;10.60;6.38;;;;;;;;;;6213077;23;20012;-93
2022/01/07 12:40:07;;;;;;;10.48;6.32;;;;;;;;;;6224925;23;20031;-93
2022/01/07 12:42:38;;;;;;;15.40;6.30;;;;;;;;;;6225292;23;20012;-94
2022/01/07 12:45:07;;;;;;;9.55;4.35;;;;;;;;;;6225800;23;20074;-92
2022/01/07 12:47:34;;;;;;;12.18;4.63;;;;;;;;;;6225702;23;20012;-92
2022/01/07 12:50:02;;;;;;;8.20;4.03;;;;;;;;;;6223750;23;20027;-91
2022/01/07 12:52:32;;;;;;;22.08;4.18;;;;;;;;;;6223114;23;20013;-92
2022/01/07 12:54:59;;;;;;;6.63;2.67;;;;;;;;;;6224273;23;20544;-92
2022/01/07 12:57:27;;;;;;;8.10;3.42;;;;;;;;;;6250734;23;20070;-91
2022/01/07 13:00:09;;;;;;;11.73;2.60;;;;;;;;;;6250276;23;20103;-94
2022/01/07 13:02:36;;;;;;;9.15;3.17;;;;;;;;;;6225457;23;20020;-95
2022/01/07 13:05:14;;;;;;;8.02;2.60;;;;;;;;;;6249806;23;20096;-94
2022/01/07 13:07:45;;;;;;;9.20;2.72;;;;;;;;;;6225046;23;20080;-95
2022/01/07 13:10:11;;;;;;;5.70;2.72;;;;;;;;;;6224902;23;20330;-93
2022/01/07 13:12:39;;;;;;;12.52;2.80;;;;;;;;;;6224169;23;20020;-94
2022/01/07 13:15:06;;;;;;;5.80;1.92;;;;;;;;;;6249005;22;20024;-92
2022/01/07 13:17:32;;;;;;;4.00;1.83;;;;;;;;;;6249914;23;20438;-93
2022/01/07 13:19:59;;;;;;;7.30;2.58;;;;;;;;;;6223330;23;20016;-92
2022/01/07 13:22:28;;;;;;;9.98;2.38;;;;;;;;;;6247653;23;20031;-91
2022/01/07 13:24:54;;;;;;;5.82;2.50;;;;;;;;;;6222044;23;20020;-91
2022/01/07 13:27:20;;;;;;;10.88;2.88;;;;;;;;;;6250035;23;20020;-92
2022/01/07 13:29:51;;;;;;;8.70;3.60;;;;;;;;;;6222503;23;20074;-91
2022/01/07 13:32:22;;;;;;;11.95;3.03;;;;;;;;;;6221771;23;20061;-92
2022/01/07 13:34:48;;;;;;;4.00;1.90;;;;;;;;;;6221325;23;20295;-92
2022/01/07 13:37:15;;;;;;;10.60;1.95;;;;;;;;;;6221812;23;20012;-91
2022/01/07 13:39:54;;;;;;;7.15;2.55;;;;;;;;;;6222707;23;20094;-91
2022/01/07 13:42:26;;;;;;;14.57;3.30;;;;;;;;;;6247709;23;20016;-92
2022/01/07 13:44:56;;;;;;;10.73;2.45;;;;;;;;;;6247529;23;20044;-92
2022/01/07 13:47:22;;;;;;;8.88;3.42;;;;;;;;;;6222204;23;20052;-91
2022/01/07 13:49:54;;;;;;;10.40;2.90;;;;;;;;;;6211389;23;20028;-90
2022/01/07 13:52:29;;;;;;;13.85;2.75;;;;;;;;;;6198459;23;20170;-90
2022/01/07 13:54:55;;;;;;;8.25;3.13;;;;;;;;;;6197994;23;20457;-89
2022/01/07 13:57:21;;;;;;;6.20;2.55;;;;;;;;;;6198477;23;20012;-91
2022/01/07 13:59:51;;;;;;;4.72;2.47;;;;;;;;;;6197021;23;20070;-89
2022/01/07 14:02:21;;;;;;;7.45;2.60;;;;;;;;;;6197865;23;20061;-93
2022/01/07 14:04:51;;;;;;;9.07;3.10;;;;;;;;;;6222641;23;20083;-92
2022/01/07 14:07:21;;;;;;;7.30;2.53;;;;;;;;;;6198723;23;20020;-92
2022/01/07 14:10:09;;;;;;;7.10;3.03;;;5.70;99.90;;;;;;6198938;23;20008;-90
2022/01/07 14:12:36;;;;;;;6.00;2.85;;;;;;;;;;6223524;23;20016;-90
2022/01/07 14:15:09;;;;;;;5.30;3.03;;;;;;;;;;6197674;23;20016;-93
2022/01/07 14:17:36;;;;;;;9.60;2.47;;;;;;;;;;6191363;23;20478;-90
2022/01/07 14:20:04;;;;;;;7.38;2.95;;;;;;;;;;6192058;23;20071;-89
2022/01/07 14:22:31;;;;;;;7.97;3.00;;;;;;;;;;6195701;23;20079;-89
2022/01/07 14:24:58;;;;;;;9.07;2.80;;;;;;;;;;6197886;23;20052;-93
2022/01/07 14:27:31;;;;;;;7.50;3.42;;;;;;;;;;6197923;23;20103;-91
2022/01/07 14:29:57;;;;;;;4.65;2.92;;;;;;;;;;6221991;23;20024;-94
2022/01/07 14:32:26;;;;;;;4.93;3.40;;;;;;;;;;6222235;23;20337;-91
2022/01/07 14:34:58;;;;;;;15.18;3.85;;;;;;;;;;6197353;23;20020;-91
2022/01/07 14:37:28;;;;;;;11.85;3.78;;;;;;;;;;6197573;23;20070;-90
2022/01/07 14:39:55;;;;;;;13.43;3.40;;;;;;;;;;6197079;23;20066;-93
2022/01/07 14:42:22;;;;;;;13.63;5.68;;;;;;;;;;6196697;23;20016;-90
2022/01/07 14:44:48;;;;;;;8.70;3.65;;;;;;;;;;6196584;23;20012;-90
2022/01/07 14:47:15;;;;;;;6.72;3.10;;;;;;;;;;6196630;23;20019;-90
2022/01/07 14:49:41;;;;;;;12.68;4.25;;;;;;;;;;6196914;23;20016;-91
2022/01/07 14:52:10;;;;;;;9.05;3.55;;;;;;;;;;6198072;23;20024;-90
2022/01/07 14:54:39;;;;;;;5.47;3.25;;;;;;;;;;6222622;23;20046;-90
2022/01/07 14:57:05;;;;;;;9.45;3.45;;;;;;;;;;6198116;23;20016;-91
2022/01/07 14:59:31;;;;;;;12.52;3.35;;;;;;;;;;6198571;23;20024;-89
2022/01/07 15:01:57;;;;;;;12.18;3.42;;;;;;;;;;6219032;23;20016;-91
2022/01/07 15:04:26;;;;;;;14.07;3.00;;;;;;;;;;6196505;23;20071;-91
2022/01/07 15:06:55;;;;;;;6.05;2.42;;;;;;;;;;6199966;23;20051;-90
2022/01/07 15:09:21;;;;;;;8.98;2.78;;;;;;;;;;6224856;23;20095;-90
2022/01/07 15:11:47;;;;;;;15.52;3.10;;;;;;;;;;6224332;23;20088;-90
2022/01/07 15:14:20;;;;;;;6.32;2.70;;;;;;;;;;6223130;23;20039;-90
2022/01/07 15:16:47;;;;;;;5.30;2.67;;;;;;;;;;6198129;23;20039;-91
2022/01/07 15:19:24;;;;;;;8.98;2.88;;;;;;;;;;6198931;23;20101;-91
2022/01/07 15:21:51;;;;;;;13.88;4.07;;;;;;;;;;6199646;23;20027;-90
2022/01/07 15:24:19;;;;;;;7.10;2.63;;;;;;;;;;6198449;23;20019;-90
2022/01/07 15:26:46;;;;;;;7.00;2.40;;;;;;;;;;6200379;23;20095;-91
2022/01/07 15:29:13;;;;;;;7.45;2.65;;;;;;;;;;6225024;23;20315;-92
2022/01/07 15:31:40;;;;;;;5.45;2.42;;;;;;;;;;6201339;23;20017;-91
2022/01/07 15:34:07;;;;;;;9.68;3.08;;;;;;;;;;6200227;23;20057;-92
2022/01/07 15:36:34;;;;;;;19.00;3.42;;;;;;;;;;6204895;23;20325;-92
2022/01/07 15:39:01;;;;;;;6.30;2.58;;;;;;;;;;6205647;23;20024;-92
2022/01/07 15:41:27;;;;;;;8.57;2.88;;;;;;;;;;6200776;23;20016;-94
2022/01/07 15:43:54;;;;;;;12.43;4.18;;;;;;;;;;6199112;23;20095;-91
2022/01/07 15:46:20;;;;;;;12.07;3.97;;;;;;;;;;6198679;23;20445;-90
2022/01/07 15:48:46;;;;;;;9.63;2.80;;;;;;;;;;6198139;23;20047;-89
2022/01/07 15:51:12;;;;;;;6.38;2.50;;;;;;;;;;6223455;23;20017;-90
2022/01/07 15:53:39;;;;;;;7.55;3.22;;;;;;;;;;6223945;23;20016;-91
2022/01/07 15:56:06;;;;;;;8.02;4.32;;;;;;;;;;6198347;23;20048;-90